Time;durP1;ratioP1;P1;durP2;ratioP2;P2;SDS_P1;SDS_P2;PMS_P1;PMS_P2;Temp;Humidity;BMP_temperature;BMP_pressure;BME280_temperature;BME280_humidity;BME280_pressure;Samples;Min_cycle;Max_cycle;Signal;HPM_P1;HPM_P2
2022/01/17 00:01:06;;;;;;;5.90;4.20;;;;;;;18.30;46.09;103033.84;5063306;28;20041;-64
2022/01/17 00:03:34;;;;;;;6.13;4.20;;;;;;;18.29;46.02;103033.97;5067792;28;20079;-63
2022/01/17 00:06:01;;;;;;;5.70;3.80;;;;;;;18.29;45.98;103034.84;5062048;28;20507;-64
2022/01/17 00:08:27;;;;;;;4.35;3.78;;;;;;;18.29;46.22;103037.56;5058511;28;20075;-64
2022/01/17 00:10:54;;;;;;;4.97;3.83;;;;;;;18.28;46.10;103043.97;5066209;28;20049;-63
2022/01/17 00:13:26;;;;;;;4.50;3.67;;;;;;;18.28;46.25;103046.69;5061548;28;20414;-64
2022/01/17 00:16:04;;;;;;;4.88;3.78;;;;;;;18.27;46.00;103050.41;5060759;28;20392;-64
2022/01/17 00:21:04;;;;;;;5.00;4.05;;;;;;;18.26;46.57;103045.06;5060534;28;21475;-64
2022/01/17 00:23:32;;;;;;;4.75;3.42;;;;;;;18.26;46.32;103039.63;5057629;28;20447;-64
2022/01/17 00:25:59;;;;;;;5.85;3.70;;;;;;;18.26;46.51;103032.31;5062775;28;20045;-64
2022/01/17 00:28:26;;;;;;;5.78;3.90;;;;;;;18.26;46.43;103031.47;5063598;28;20088;-64
2022/01/17 00:30:52;;;;;;;4.85;3.65;;;;;;;18.25;46.24;103036.03;5065545;28;20072;-64
2022/01/17 00:33:19;;;;;;;5.10;3.83;;;;;;;18.25;46.13;103033.31;5061143;28;20032;-64
2022/01/17 00:35:46;;;;;;;4.68;3.25;;;;;;;18.26;46.32;103037.78;5063890;28;20146;-64
2022/01/17 00:38:12;;;;;;;5.00;3.80;;;;;;;18.25;46.39;103033.31;5059345;28;20383;-64
2022/01/17 00:40:41;;;;;;;4.30;3.60;;;;;;;18.25;46.18;103037.88;5061672;28;20047;-64
2022/01/17 00:43:08;;;;;;;5.25;3.58;;;;;;;18.25;46.32;103036.03;5064643;28;20036;-64
2022/01/17 00:45:38;;;;;;;4.55;3.38;;;;;;;18.25;46.34;103036.03;5067632;28;20048;-64
2022/01/17 00:48:05;;;;;;;5.63;3.15;;;;;;;18.25;46.25;103022.44;5068520;28;20044;-64
2022/01/17 00:50:32;;;;;;;4.43;3.65;;;;;;;18.25;46.29;103024.28;5060340;28;20551;-64
2022/01/17 00:53:04;;;;;;;4.80;3.30;;;;;;;18.25;46.14;103036.03;5058988;28;20049;-64
2022/01/17 00:55:32;;;;;;;6.60;3.72;;;;;;;18.26;46.39;103039.63;5071932;28;20131;-64
2022/01/17 00:58:00;;;;;;;4.03;3.15;;;;;;;18.25;46.51;103041.47;5060992;28;20055;-64
2022/01/17 01:00:27;;;;;;;4.82;3.22;;;;;;;18.26;46.20;103050.50;5063338;28;20044;-64
2022/01/17 01:02:54;;;;;;;4.72;2.90;;;;;;;18.26;46.17;103055.94;5072419;28;20119;-64
2022/01/17 01:05:21;;;;;;;4.40;3.40;;;;;;;18.26;46.34;103055.94;5069908;28;20423;-64
2022/01/17 01:07:48;;;;;;;4.20;2.70;;;;;;;18.25;45.92;103057.78;5061560;28;20040;-64
2022/01/17 01:10:14;;;;;;;5.00;3.22;;;;;;;18.25;46.27;103057.78;5060657;28;20037;-63
2022/01/17 01:12:43;;;;;;;5.15;3.30;;;;;;;18.25;46.11;103052.34;5064584;28;20479;-63
2022/01/17 01:15:20;;;;;;;4.30;2.90;;;;;;;18.26;46.17;103058.66;5063680;28;20076;-64
2022/01/17 01:17:53;;;;;;;4.45;3.20;;;;;;;18.26;45.85;103053.22;5054727;28;20075;-64
2022/01/17 01:21:43;;;;;;;3.83;3.13;;;;;;;18.25;46.11;103055.06;5069209;28;20040;-64
2022/01/17 01:29:08;;;;;;;5.00;3.03;;;;;;;18.28;46.30;103056.69;4990239;28;20050;-64
2022/01/17 01:31:44;;;;;;;3.88;2.58;;;;;;;18.29;46.41;103058.44;4989300;28;20046;-64
2022/01/17 01:34:12;;;;;;;5.20;2.90;;;;;;;18.29;45.86;103070.19;5016085;28;20048;-64
2022/01/17 01:36:39;;;;;;;4.30;3.05;;;;;;;18.31;45.74;103068.25;5052595;28;20040;-64
2022/01/17 01:39:07;;;;;;;4.25;2.65;;;;;;;18.32;46.00;103069.13;5063251;28;20040;-63
2022/01/17 01:41:37;;;;;;;3.50;2.63;;;;;;;18.34;46.14;103067.16;5066053;28;20084;-63
2022/01/17 01:44:04;;;;;;;4.65;3.00;;;;;;;18.33;46.08;103069.00;5069371;28;20118;-65
2022/01/17 01:46:30;;;;;;;3.75;2.70;;;;;;;18.33;45.44;103069.00;5064133;28;20438;-65
2022/01/17 01:48:57;;;;;;;4.05;2.92;;;;;;;18.34;45.48;103062.59;5072536;28;20048;-64
2022/01/17 01:51:24;;;;;;;4.47;2.70;;;;;;;18.34;45.55;103051.72;5065666;28;20407;-64
2022/01/17 01:53:50;;;;;;;3.35;2.50;;;;;;;18.34;45.45;103053.56;5062904;28;20040;-64
2022/01/17 01:56:16;;;;;;;4.18;2.85;;;;;;;18.35;45.55;103058.03;5065801;28;20522;-64
2022/01/17 01:58:44;;;;;;;3.80;2.47;;;;;;;18.34;45.60;103057.16;5063126;28;20045;-64
2022/01/17 02:01:10;;;;;;;4.65;2.53;;;;;;;18.34;45.29;103056.28;5058975;28;20128;-64
2022/01/17 02:03:37;;;;;;;3.70;2.30;;;;;;;18.33;45.57;103049.97;5068342;28;20067;-64
2022/01/17 02:06:04;;;;;;;5.38;2.35;;;;;;;18.33;45.58;103058.13;5065958;28;20061;-64
2022/01/17 02:08:30;;;;;;;2.60;2.20;;;;;;;18.33;45.38;103071.72;5058466;28;20052;-64
2022/01/17 02:10:58;;;;;;;5.65;2.50;;;;;;;18.34;45.54;103083.50;5063401;28;20046;-64
2022/01/17 02:13:25;;;;;;;3.53;2.15;;;;;;;18.33;45.47;103070.84;5068352;28;20135;-64
2022/01/17 02:16:06;;;;;;;4.28;2.53;;;;;;;18.33;45.44;103076.31;5059668;28;20447;-65
2022/01/17 02:18:32;;;;;;;3.40;2.38;;;;;;;18.31;45.24;103060.09;5065107;28;20045;-64
2022/01/17 02:23:37;;;;;;;6.85;2.42;;;;;;;18.31;45.33;103056.50;5060775;28;20045;-63
2022/01/17 02:26:04;;;;;;;3.65;2.17;;;;;;;18.30;45.54;103058.34;5062782;28;20048;-64
2022/01/17 02:28:33;;;;;;;3.10;2.15;;;;;;;18.31;45.35;103053.78;5069062;28;20032;-64
2022/01/17 02:31:01;;;;;;;3.78;1.90;;;;;;;18.31;45.11;103061.94;5060266;28;20075;-63
2022/01/17 02:33:27;;;;;;;2.28;1.85;;;;;;;18.31;45.57;103060.09;5070345;28;20036;-64
2022/01/17 02:35:54;;;;;;;4.38;2.03;;;;;;;18.30;45.39;103063.78;5071081;28;20045;-64
2022/01/17 02:38:20;;;;;;;3.72;2.00;;;;;;;18.30;45.32;103071.94;5060578;28;20041;-63
2022/01/17 02:40:49;;;;;;;3.35;2.05;;;;;;;18.30;45.17;103066.50;5066562;28;20040;-64
2022/01/17 02:43:18;;;;;;;3.78;2.20;;;;;;;18.31;45.17;103067.38;5062375;28;20047;-64
2022/01/17 02:48:23;;;;;;;3.38;1.70;;;;;;;18.32;45.23;103069.13;5059276;28;20037;-64
2022/01/17 02:50:51;;;;;;;4.25;2.00;;;;;;;18.32;45.00;103061.81;5060042;28;20146;-63
2022/01/17 02:53:18;;;;;;;3.90;1.98;;;;;;;18.32;44.96;103070.00;5061046;28;20467;-63
2022/01/17 02:56:06;;;;;;;3.30;1.90;;;;;;;18.33;45.10;103065.41;5056471;28;20075;-63
2022/01/17 02:58:34;;;;;;;5.03;2.05;;;;;;;18.32;45.03;103061.81;5063043;28;20410;-63
2022/01/17 03:01:08;;;;;;;3.38;1.98;;;;;;;18.32;44.79;103064.53;5057752;28;20132;-63
2022/01/17 03:03:36;;;;;;;2.75;1.70;;;;;;;18.33;44.85;103068.13;5061368;28;20049;-63
2022/01/17 03:06:03;;;;;;;2.42;1.88;;;;;;;18.32;44.61;103063.69;5058299;28;20044;-63
2022/01/17 03:08:33;;;;;;;3.58;2.10;;;;;;;18.32;44.77;103064.53;5070351;28;20498;-63
2022/01/17 03:11:01;;;;;;;2.35;1.73;;;;;;;18.33;44.63;103059.97;5065084;28;20082;-63
2022/01/17 03:13:33;;;;;;;3.78;2.22;;;;;;;18.33;44.54;103052.69;5064622;28;20571;-63
2022/01/17 03:16:05;;;;;;;2.63;1.92;;;;;;;18.32;44.93;103052.78;5062606;28;20076;-65
2022/01/17 03:18:36;;;;;;;4.35;2.10;;;;;;;18.33;44.62;103049.97;5067027;28;20437;-63
2022/01/17 03:21:03;;;;;;;2.83;1.60;;;;;;;18.33;44.43;103068.13;5060528;28;20139;-63
2022/01/17 03:23:30;;;;;;;2.38;1.75;;;;;;;18.34;44.31;103081.63;5061205;28;20036;-63
2022/01/17 03:25:56;;;;;;;4.03;1.98;;;;;;;18.34;44.80;103078.03;5055772;28;20407;-63
2022/01/17 03:28:27;;;;;;;3.13;1.60;;;;;;;18.36;44.35;103087.84;5061265;28;20056;-63
2022/01/17 03:30:54;;;;;;;2.88;1.65;;;;;;;18.36;44.51;103076.09;5057683;28;20127;-64
2022/01/17 03:33:21;;;;;;;2.63;1.73;;;;;;;18.38;44.61;103074.13;5063371;28;20484;-64
2022/01/17 03:35:48;;;;;;;2.83;1.88;;;;;;;18.38;44.54;103068.69;5067150;28;20068;-64
2022/01/17 03:38:18;;;;;;;3.58;1.75;;;;;;;18.38;44.34;103075.00;5060197;28;20045;-64
2022/01/17 03:40:50;;;;;;;4.05;1.40;;;;;;;18.38;44.32;103079.56;5063428;28;20048;-64
2022/01/17 03:43:19;;;;;;;3.92;1.42;;;;;;;18.38;44.30;103071.41;5054106;28;20480;-64
2022/01/17 03:45:46;;;;;;;4.30;1.58;;;;;;;18.38;44.38;103064.13;5058006;28;20082;-64
2022/01/17 03:48:13;;;;;;;4.05;1.65;;;;;;;18.38;43.94;103064.13;5062255;28;20048;-64
2022/01/17 03:50:40;;;;;;;2.85;1.80;;;;;;;18.38;44.24;103064.13;5056514;28;20123;-64
2022/01/17 03:53:07;;;;;;;4.82;1.92;;;;;;;18.37;43.88;103058.78;5058558;28;20076;-64
2022/01/17 03:55:34;;;;;;;2.80;1.80;;;;;;;18.37;44.16;103056.94;5065711;28;20052;-64
2022/01/17 03:58:05;;;;;;;2.03;1.48;;;;;;;18.36;44.37;103057.91;5052470;28;20163;-63
2022/01/17 04:00:40;;;;;;;3.90;2.00;;;;;;;18.38;43.85;103071.41;5064618;28;20043;-65
2022/01/17 04:03:07;;;;;;;4.07;2.38;;;;;;;18.37;43.80;103073.25;5060702;28;20045;-63
2022/01/17 04:05:34;;;;;;;3.65;1.65;;;;;;;18.37;44.09;103088.72;5070174;28;20039;-63
2022/01/17 04:08:01;;;;;;;3.22;1.98;;;;;;;18.37;43.77;103089.59;5062340;28;20048;-63
2022/01/17 04:10:28;;;;;;;4.10;1.70;;;;;;;18.36;43.96;103092.41;5054573;28;20074;-63
2022/01/17 04:13:00;;;;;;;2.13;1.50;;;;;;;18.36;44.00;103086.97;5056557;28;20049;-64
2022/01/17 04:15:28;;;;;;;3.78;1.63;;;;;;;18.36;43.47;103085.13;5073287;28;20060;-63
2022/01/17 04:17:56;;;;;;;2.35;1.52;;;;;;;18.37;43.78;103083.28;5067329;28;20056;-63
2022/01/17 04:20:27;;;;;;;3.67;1.70;;;;;;;18.37;43.38;103089.59;5068746;28;20052;-63
2022/01/17 04:23:02;;;;;;;2.50;1.60;;;;;;;18.36;43.75;103082.41;5084579;28;20055;-63
2022/01/17 04:25:54;;;;;;;2.73;1.40;;;;;;;18.38;43.53;103079.56;5063499;28;20052;-62
2022/01/17 04:28:20;;;;;;;2.40;1.40;;;;;;;18.37;43.21;103084.16;5068546;28;20036;-62
2022/01/17 04:30:47;;;;;;;2.95;1.70;;;;;;;18.37;43.23;103083.28;5064370;28;20041;-62
2022/01/17 04:33:14;;;;;;;4.15;1.60;;;;;;;18.36;43.38;103071.53;5070475;28;20067;-62
2022/01/17 04:35:43;;;;;;;2.42;1.38;;;;;;;18.36;43.67;103068.81;5062345;28;20094;-62
2022/01/17 04:38:17;;;;;;;2.30;1.67;;;;;;;18.36;43.65;103066.06;5068661;28;20056;-62
2022/01/17 04:40:49;;;;;;;2.97;1.40;;;;;;;18.36;43.58;103070.66;5066126;28;20048;-62
2022/01/17 04:43:32;;;;;;;2.65;1.20;;;;;;;18.37;43.49;103072.41;5087502;28;20048;-63
2022/01/17 04:46:00;;;;;;;2.58;1.48;;;;;;;18.36;43.52;103089.69;5063275;28;20106;-63
2022/01/17 04:48:26;;;;;;;4.28;1.27;;;;;;;18.35;43.09;103091.53;5062854;28;20079;-63
2022/01/17 04:51:23;;;;;;;2.60;1.20;;;;;;;18.36;43.47;103106.00;5065322;28;20136;-63
2022/01/17 04:54:10;;;;;;;2.30;1.17;;;;;;;18.35;43.14;103109.72;5060407;28;20131;-63
2022/01/17 04:56:54;;;;;;;3.15;1.15;;;;;;;18.35;43.37;103115.16;5067914;28;20149;-63
2022/01/17 04:59:21;;;;;;;2.35;1.45;;;;;;;18.34;43.41;103117.00;5069709;28;20063;-63
2022/01/17 05:01:47;;;;;;;3.45;1.45;;;;;;;18.34;43.19;103117.00;5063535;28;20048;-63
2022/01/17 05:04:21;;;;;;;3.08;1.35;;;;;;;18.35;43.02;103123.31;5063029;28;20045;-63
2022/01/17 05:06:47;;;;;;;4.53;1.90;;;;;;;18.35;43.16;103126.03;5068078;28;20567;-64
2022/01/17 05:09:14;;;;;;;2.30;1.10;;;;;;;18.35;42.89;103132.34;5067993;28;20041;-63
2022/01/17 05:11:42;;;;;;;2.13;1.20;;;;;;;18.36;42.83;103128.66;5072611;28;20495;-64
2022/01/17 05:14:09;;;;;;;2.30;1.48;;;;;;;18.36;42.88;103125.94;5067517;28;20039;-63
2022/01/17 05:16:43;;;;;;;3.00;1.70;;;;;;;18.36;43.09;103120.50;5070113;28;20044;-64
2022/01/17 05:21:55;;;;;;;3.13;1.05;;;;;;;18.39;42.92;103119.41;5064596;28;20110;-64
2022/01/17 05:24:21;;;;;;;2.20;1.00;;;;;;;18.41;42.47;103120.19;5081549;28;20041;-64
2022/01/17 05:26:48;;;;;;;2.75;1.30;;;;;;;18.41;42.30;103123.78;5062044;28;20508;-63
2022/01/17 05:29:15;;;;;;;2.60;1.05;;;;;;;18.42;42.75;103121.91;5057042;28;20053;-63
2022/01/17 05:31:42;;;;;;;2.38;1.25;;;;;;;18.44;42.61;103122.69;5061111;28;20048;-63
2022/01/17 05:34:09;;;;;;;2.80;1.20;;;;;;;18.45;42.63;103121.72;5060364;28;20041;-63
2022/01/17 05:36:36;;;;;;;3.15;1.40;;;;;;;18.47;42.79;103132.50;5063235;28;20043;-63
2022/01/17 05:39:03;;;;;;;1.73;0.82;;;;;;;18.46;42.55;103126.19;5067798;28;20040;-63
2022/01/17 05:41:29;;;;;;;1.60;1.20;;;;;;;18.47;42.83;103122.47;5063901;28;20403;-63
2022/01/17 05:43:56;;;;;;;2.78;1.17;;;;;;;18.48;42.69;103120.63;5063190;28;20054;-63
2022/01/17 05:46:22;;;;;;;1.30;0.80;;;;;;;18.47;42.64;103125.19;5066344;28;20049;-63
2022/01/17 05:48:49;;;;;;;1.55;0.93;;;;;;;18.46;42.50;103115.28;5066158;28;20041;-63
2022/01/17 05:51:19;;;;;;;2.35;1.10;;;;;;;18.46;42.49;103109.84;5070896;28;20064;-63
2022/01/17 05:53:45;;;;;;;3.53;1.15;;;;;;;18.46;42.44;103119.88;5066789;28;20407;-63
2022/01/17 05:56:12;;;;;;;2.10;1.15;;;;;;;18.45;42.33;103107.22;5067937;28;20044;-63
2022/01/17 05:58:38;;;;;;;1.95;0.98;;;;;;;18.46;42.28;103114.41;5066162;28;20408;-63
2022/01/17 06:01:06;;;;;;;1.65;0.80;;;;;;;18.45;42.42;103115.41;5068782;28;20487;-63
2022/01/17 06:03:33;;;;;;;2.67;0.90;;;;;;;18.45;42.41;103119.00;5062524;28;20048;-64
2022/01/17 06:06:00;;;;;;;1.52;0.93;;;;;;;18.47;42.23;103121.59;5085387;28;20076;-63
2022/01/17 06:08:26;;;;;;;2.97;1.27;;;;;;;18.46;42.47;103111.69;5067286;28;20047;-63
2022/01/17 06:10:53;;;;;;;2.78;0.98;;;;;;;18.47;42.15;103113.44;5066537;28;20067;-63
2022/01/17 06:13:19;;;;;;;1.90;1.00;;;;;;;18.47;41.95;103121.59;5064952;28;20411;-64
2022/01/17 06:15:46;;;;;;;1.80;0.90;;;;;;;18.48;41.82;103113.34;5067763;28;20051;-64
2022/01/17 06:18:14;;;;;;;2.42;0.88;;;;;;;18.49;42.01;103125.09;5066442;28;20048;-64
2022/01/17 06:20:40;;;;;;;3.50;1.00;;;;;;;18.48;42.27;103112.47;5068429;28;20053;-63
2022/01/17 06:23:07;;;;;;;1.95;1.10;;;;;;;18.49;42.13;103106.03;5064863;28;20048;-63
2022/01/17 06:25:35;;;;;;;2.50;0.90;;;;;;;18.48;42.29;103124.22;5065426;28;20044;-63
2022/01/17 06:28:02;;;;;;;2.92;1.00;;;;;;;18.49;42.20;103131.41;5069849;28;20107;-64
2022/01/17 06:30:29;;;;;;;2.17;0.88;;;;;;;18.50;42.03;103143.16;5068046;28;20058;-63
2022/01/17 06:32:57;;;;;;;1.10;0.77;;;;;;;18.49;42.06;103145.00;5063185;28;20589;-63
2022/01/17 06:35:23;;;;;;;2.15;0.95;;;;;;;18.49;41.74;103134.13;5068185;28;20049;-63
2022/01/17 06:37:51;;;;;;;3.13;1.15;;;;;;;18.49;41.83;103136.84;5060069;28;20051;-63
2022/01/17 06:40:20;;;;;;;1.80;0.80;;;;;;;18.50;41.97;103133.16;5066692;28;20044;-63
2022/01/17 06:42:47;;;;;;;2.25;1.00;;;;;;;18.50;41.70;103133.16;5065058;28;20045;-63
2022/01/17 06:45:15;;;;;;;1.65;0.73;;;;;;;18.50;41.86;103135.88;5070243;28;20121;-63
2022/01/17 06:47:43;;;;;;;1.92;0.90;;;;;;;18.51;42.15;103126.72;5063161;28;20072;-63
2022/01/17 06:50:11;;;;;;;2.22;1.20;;;;;;;18.51;41.95;103129.44;5062157;28;20054;-64
2022/01/17 06:52:38;;;;;;;1.85;0.95;;;;;;;18.51;41.76;103128.59;5057752;28;20045;-63
2022/01/17 06:55:09;;;;;;;1.75;0.90;;;;;;;18.51;41.76;103144.91;5065957;28;20384;-64
2022/01/17 06:57:36;;;;;;;1.50;0.80;;;;;;;18.51;41.89;103153.94;5062165;28;20045;-64
2022/01/17 07:00:08;;;;;;;3.22;1.10;;;;;;;18.52;42.00;103157.53;5065491;28;20045;-64
2022/01/17 07:02:35;;;;;;;1.70;0.85;;;;;;;18.51;41.54;103169.41;5062237;28;20098;-64
2022/01/17 07:05:03;;;;;;;1.67;0.88;;;;;;;18.50;42.01;103168.53;5068821;28;20040;-63
2022/01/17 07:07:30;;;;;;;2.22;1.00;;;;;;;18.50;42.04;103178.53;5058941;28;20052;-63
2022/01/17 07:10:03;;;;;;;3.45;1.20;;;;;;;18.51;41.75;103192.03;5065618;28;20415;-64
2022/01/17 07:12:29;;;;;;;2.40;1.20;;;;;;;18.51;41.64;103183.88;5054132;28;20048;-64
2022/01/17 07:14:56;;;;;;;1.95;0.88;;;;;;;18.52;41.31;103168.41;5065454;28;20064;-63
2022/01/17 07:17:22;;;;;;;1.83;0.90;;;;;;;18.54;41.54;103166.47;5065010;28;20122;-64
2022/01/17 07:19:49;;;;;;;3.22;1.10;;;;;;;18.54;41.32;103161.91;5066418;28;20040;-64
2022/01/17 07:22:16;;;;;;;2.65;1.30;;;;;;;18.57;41.89;103171.69;5052156;28;20033;-63
2022/01/17 07:24:47;;;;;;;2.20;1.13;;;;;;;18.57;41.28;103166.25;5059981;28;20047;-63
2022/01/17 07:27:15;;;;;;;1.70;0.98;;;;;;;18.58;41.57;103165.28;5068218;28;20055;-64
2022/01/17 07:29:42;;;;;;;2.63;1.33;;;;;;;18.59;41.39;103150.72;5057410;28;20047;-63
2022/01/17 07:32:10;;;;;;;2.42;0.80;;;;;;;18.59;41.45;103148.00;5061308;28;20052;-64
2022/01/17 07:34:36;;;;;;;2.70;0.93;;;;;;;18.60;41.36;103160.63;5066698;28;20051;-65
2022/01/17 07:37:04;;;;;;;1.83;0.90;;;;;;;18.61;41.69;103165.09;5062570;28;20064;-65
2022/01/17 07:39:30;;;;;;;2.95;1.17;;;;;;;18.60;41.23;103172.41;5068337;28;20048;-64
2022/01/17 07:41:57;;;;;;;3.17;1.00;;;;;;;18.61;41.62;103181.44;5066022;28;20513;-68
2022/01/17 07:44:27;;;;;;;1.58;0.93;;;;;;;18.60;41.12;103187.84;5066021;28;20040;-65
2022/01/17 07:46:59;;;;;;;3.15;1.10;;;;;;;18.60;41.20;103187.84;5056689;28;20048;-66
2022/01/17 07:49:27;;;;;;;1.95;0.88;;;;;;;18.61;41.06;103189.59;5072254;28;20043;-66
2022/01/17 07:51:59;;;;;;;2.33;1.10;;;;;;;18.61;41.29;103193.22;5068062;28;20460;-66
2022/01/17 07:54:32;;;;;;;4.47;0.98;;;;;;;18.61;41.52;103195.03;5071272;28;20048;-64
2022/01/17 07:57:01;;;;;;;2.28;1.10;;;;;;;18.61;41.30;103192.31;5056158;28;20072;-64
2022/01/17 07:59:28;;;;;;;2.67;1.13;;;;;;;18.60;41.46;103190.56;5057872;28;20037;-64
2022/01/17 08:01:55;;;;;;;3.22;1.35;;;;;;;18.63;41.36;103187.69;5060126;28;20056;-64
2022/01/17 08:04:22;;;;;;;4.47;0.93;;;;;;;18.64;41.69;103197.59;5072209;28;20047;-65
2022/01/17 08:06:51;;;;;;;2.78;0.90;;;;;;;18.63;41.38;103188.56;5055379;28;20041;-64
2022/01/17 08:09:26;;;;;;;4.00;1.13;;;;;;;18.63;41.22;103207.59;5061126;28;20498;-66
2022/01/17 08:12:08;;;;;;;2.85;1.08;;;;;;;18.63;41.32;103207.59;5060113;28;20045;-64
2022/01/17 08:14:36;;;;;;;2.08;1.33;;;;;;;18.62;41.70;103194.97;5061310;28;20226;-64
2022/01/17 08:17:03;;;;;;;2.75;0.90;;;;;;;18.62;41.48;103205.84;5063855;28;20709;-64
2022/01/17 08:19:30;;;;;;;2.38;1.30;;;;;;;18.62;41.35;103214.03;5065199;28;20052;-66
2022/01/17 08:22:00;;;;;;;1.77;1.00;;;;;;;18.62;41.30;103224.03;5062934;28;20132;-70
2022/01/17 08:24:27;;;;;;;1.55;1.00;;;;;;;18.62;41.25;103224.03;5058101;28;20033;-75
2022/01/17 08:26:54;;;;;;;2.22;1.10;;;;;;;18.62;41.22;103221.31;5059501;28;20067;-65
2022/01/17 08:29:22;;;;;;;2.00;0.90;;;;;;;18.62;41.16;103205.84;5057928;28;20052;-65
2022/01/17 08:31:48;;;;;;;2.42;0.95;;;;;;;18.62;41.61;103205.84;5064233;28;20040;-65
2022/01/17 08:34:17;;;;;;;2.47;1.00;;;;;;;18.61;41.58;103212.28;5064141;28;20139;-70
2022/01/17 08:36:46;;;;;;;2.53;0.98;;;;;;;18.64;41.37;103214.78;5073568;28;20063;-77
2022/01/17 08:39:14;;;;;;;4.82;1.05;;;;;;;18.68;41.58;103210.00;5071272;28;20681;-73
2022/01/17 08:41:42;;;;;;;6.35;1.50;;;;;;;18.65;41.20;103212.94;5071335;28;20048;-67
2022/01/17 08:44:10;;;;;;;9.90;5.28;;;;;;;18.14;40.99;103225.38;5070439;28;20056;-68
2022/01/17 08:46:37;;;;;;;8.20;2.92;;;;;;;18.31;43.68;103215.13;5086763;28;20045;-73
2022/01/17 08:49:04;;;;;;;9.65;3.15;;;;;;;18.60;43.75;103206.91;5066814;28;20060;-72
2022/01/17 08:51:31;;;;;;;7.60;2.95;;;;;;;18.86;43.44;103210.59;5072298;28;20064;-74
2022/01/17 08:53:58;;;;;;;12.38;2.95;;;;;;;19.12;43.60;103228.72;5069298;28;20044;-65
2022/01/17 09:32:58;;;;;;;;;;;;;;;7.87;61.39;103187.22;5079113;27;20760;-71
2022/01/17 09:35:24;;;;;;;22.40;10.32;;;;;;;8.70;58.80;103191.53;5068811;28;19971;-71
2022/01/17 09:37:51;;;;;;;27.27;11.57;;;;;;;9.31;56.81;103182.72;5069019;28;20041;-71
2022/01/17 09:40:19;;;;;;;25.42;11.18;;;;;;;9.75;55.69;103177.88;5067941;28;20116;-71
2022/01/17 09:42:46;;;;;;;18.90;10.35;;;;;;;10.03;54.52;103177.91;5069071;28;20136;-71
2022/01/17 09:45:16;;;;;;;26.38;10.02;;;;;;;10.19;53.45;103193.47;5052587;28;20049;-71
2022/01/17 09:47:43;;;;;;;28.52;11.90;;;;;;;10.31;53.17;103196.72;5068543;28;20059;-68
2022/01/17 09:50:20;;;;;;;25.20;10.57;;;;;;;10.38;52.96;103204.53;5068814;28;20041;-70
2022/01/17 09:52:52;;;;;;;21.83;11.40;;;;;;;10.42;52.59;103216.06;5070442;28;20041;-71
2022/01/17 09:55:25;;;;;;;23.85;10.32;;;;;;;10.45;52.66;103222.22;5070437;28;20397;-70
2022/01/17 09:58:01;;;;;;;27.10;10.40;;;;;;;10.47;52.68;103225.75;5068829;28;20131;-69
2022/01/17 10:00:28;;;;;;;;;;;;;;;10.48;52.40;103237.38;5068922;28;20052;-70
2022/01/17 10:03:02;;;;;;;29.85;9.85;;;;;;;10.52;52.22;103235.47;5068224;28;20293;-70
2022/01/17 10:05:35;;;;;;;30.30;10.88;;;;;;;10.50;52.32;103224.75;5057128;28;20132;-71
2022/01/17 10:08:10;;;;;;;26.85;9.90;;;;;;;10.51;52.51;103237.28;5051999;28;20045;-71
2022/01/17 10:11:01;;;;;;;23.58;11.10;;;;;;;10.50;52.27;103232.81;5070028;28;20045;-70
2022/01/17 10:13:31;;;;;;;22.92;10.10;;;;;;;10.51;52.25;103231.91;5070204;28;20047;-69
2022/01/17 10:16:02;;;;;;;23.13;9.70;;;;;;;10.51;52.74;103237.28;5068306;28;20047;-69
2022/01/17 10:18:39;;;;;;;27.00;10.82;;;;;;;10.52;52.76;103241.72;5069607;28;20048;-68
2022/01/17 10:21:18;;;;;;;23.10;10.00;;;;;;;10.54;53.07;103234.47;5069674;28;20079;-68
2022/01/17 10:24:21;;;;;;;20.70;10.32;;;;;;;10.54;53.24;103236.28;5069957;28;20119;-69
2022/01/17 10:29:42;;;;;;;;;;;;;;;10.57;52.86;103231.69;5069999;28;20041;-69
2022/01/17 10:35:07;;;;;;;21.07;9.73;;;;;;;10.64;52.89;103230.56;5068255;28;20466;-69
2022/01/17 10:37:33;;;;;;;23.48;9.98;;;;;;;10.64;53.05;103245.81;5069488;28;20443;-69
2022/01/17 10:40:06;;;;;;;25.42;9.35;;;;;;;10.65;53.22;103237.69;5101903;28;20041;-70
2022/01/17 10:42:45;;;;;;;22.15;9.55;;;;;;;10.66;53.38;103242.13;5063433;28;20055;-69
2022/01/17 10:45:13;;;;;;;27.30;9.23;;;;;;;10.68;53.46;103245.66;5057230;28;20055;-69
2022/01/17 10:47:46;;;;;;;26.05;9.82;;;;;;;10.72;53.84;103259.88;5055887;28;20044;-69
2022/01/17 10:50:56;;;;;;;24.83;9.25;;;;;;;10.73;54.28;103249.06;5055647;28;20041;-69
2022/01/17 10:53:22;;;;;;;22.73;8.48;;;;;;;10.75;53.74;103254.38;5055969;28;20055;-68
2022/01/17 10:55:52;;;;;;;19.27;8.63;;;;;;;10.78;54.19;103268.59;5055801;28;20048;-69
2022/01/17 10:58:28;;;;;;;28.35;9.05;;;;;;;10.80;54.30;103269.44;5055667;28;20044;-69
2022/01/17 11:00:58;;;;;;;26.92;8.55;;;;;;;10.82;54.35;103275.63;5055527;28;20037;-69
2022/01/17 11:03:28;;;;;;;22.10;8.68;;;;;;;10.82;54.51;103275.63;5056097;28;20045;-69
2022/01/17 11:06:00;;;;;;;26.00;9.15;;;;;;;10.85;54.48;103273.78;5056018;28;20037;-69
2022/01/17 11:08:29;;;;;;;22.88;8.10;;;;;;;10.87;54.60;103280.84;5055851;28;20083;-69
2022/01/17 11:10:58;;;;;;;24.05;7.63;;;;;;;10.89;54.76;103280.81;5055442;28;20591;-69
2022/01/17 11:13:29;;;;;;;22.95;7.70;;;;;;;10.90;54.73;103291.50;5055927;28;20041;-68
2022/01/17 11:15:58;;;;;;;21.98;8.00;;;;;;;10.91;54.85;103287.88;5055467;28;20052;-69
2022/01/17 11:18:28;;;;;;;19.95;8.23;;;;;;;10.94;54.94;103282.41;5055390;28;20041;-69
2022/01/17 11:20:58;;;;;;;27.58;8.70;;;;;;;10.96;55.03;103285.03;5054301;28;20036;-67
2022/01/17 11:23:26;;;;;;;22.75;6.70;;;;;;;10.98;55.24;103277.81;5057089;28;20044;-68
2022/01/17 11:25:55;;;;;;;20.05;7.40;;;;;;;11.01;55.02;103265.13;5058440;28;20041;-69
2022/01/17 11:28:28;;;;;;;26.40;7.93;;;;;;;11.04;55.28;103269.53;5055230;28;20037;-69
2022/01/17 11:31:02;;;;;;;25.80;7.57;;;;;;;11.06;55.24;103265.84;5055140;28;20064;-68
2022/01/17 11:33:29;;;;;;;20.73;6.68;;;;;;;11.08;55.24;103272.06;5055732;28;20394;-68
2022/01/17 11:35:56;;;;;;;27.45;7.00;;;;;;;11.10;55.45;103272.00;5055153;28;20556;-69
2022/01/17 11:38:27;;;;;;;27.85;7.20;;;;;;;11.12;55.42;103257.56;5054833;28;20037;-69
2022/01/17 11:40:55;;;;;;;26.80;7.50;;;;;;;11.17;55.48;103264.63;5054965;28;20449;-69
2022/01/17 11:43:26;;;;;;;28.80;7.47;;;;;;;11.19;55.56;103278.91;5053845;28;20041;-69
2022/01/17 11:45:54;;;;;;;26.23;7.53;;;;;;;11.20;55.50;103278.84;5037048;28;20396;-69
2022/01/17 11:48:24;;;;;;;22.65;6.22;;;;;;;11.22;55.73;103278.78;5054572;28;20489;-69
2022/01/17 11:50:53;;;;;;;24.70;7.55;;;;;;;11.26;55.77;103285.81;5054392;28;20410;-69
2022/01/17 11:53:19;;;;;;;23.10;7.10;;;;;;;11.27;55.88;103292.97;5054979;28;20037;-69
2022/01/17 11:55:48;;;;;;;17.38;6.05;;;;;;;11.28;55.83;103300.97;5053852;28;20040;-69
2022/01/17 11:58:27;;;;;;;24.30;6.68;;;;;;;11.31;56.00;103286.53;5054531;28;20045;-69
2022/01/17 12:00:56;;;;;;;22.13;7.57;;;;;;;11.34;55.96;103281.94;5054056;28;20055;-69
2022/01/17 12:03:27;;;;;;;19.42;5.57;;;;;;;11.35;56.15;103275.63;5054797;28;20135;-69
2022/01/17 12:05:57;;;;;;;20.63;6.50;;;;;;;11.39;56.09;103279.97;5054645;28;20119;-69
2022/01/17 12:08:25;;;;;;;22.05;6.38;;;;;;;11.42;56.17;103285.22;5054283;28;20099;-69
2022/01/17 12:11:03;;;;;;;24.38;7.32;;;;;;;11.45;56.42;103278.84;5054191;28;20045;-69
2022/01/17 12:13:48;;;;;;;24.20;6.75;;;;;;;11.47;56.50;103277.00;5054175;28;20048;-69
2022/01/17 12:16:19;;;;;;;18.02;5.97;;;;;;;11.49;56.44;103274.25;5054374;28;20060;-68
2022/01/17 12:18:58;;;;;;;22.27;6.40;;;;;;;11.51;56.51;103261.59;5051974;28;20451;-69
2022/01/17 12:21:32;;;;;;;21.73;6.25;;;;;;;11.51;56.47;103246.34;5052258;28;20075;-69
2022/01/17 12:24:25;;;;;;;23.63;6.35;;;;;;;11.53;56.83;103238.22;5052525;28;20068;-69
2022/01/17 12:26:56;;;;;;;21.73;6.25;;;;;;;11.56;56.74;103254.25;5052810;28;20490;-69
2022/01/17 12:29:38;;;;;;;26.75;6.22;;;;;;;11.55;56.79;103282.97;5036163;28;20132;-68
2022/01/17 12:32:07;;;;;;;21.33;6.57;;;;;;;11.57;56.80;103289.19;5053421;28;20088;-68
2022/01/17 12:34:42;;;;;;;34.42;6.35;;;;;;;11.59;56.58;103286.44;5053752;28;20052;-69